sensor_id;sensor_type;location;lat;lon;timestamp;P1;durP1;ratioP1;P2;durP2;ratioP2
75716;SDS011;64333;50.138;14.332;2023-04-04T00:00:06;7.10;;;2.70;;
75716;SDS011;64333;50.138;14.332;2023-04-04T00:02:31;5.18;;;2.67;;
75716;SDS011;64333;50.138;14.332;2023-04-04T00:04:56;5.30;;;2.77;;
75716;SDS011;64333;50.138;14.332;2023-04-04T00:07:22;5.72;;;2.90;;
75716;SDS011;64333;50.138;14.332;2023-04-04T00:09:47;5.30;;;3.00;;
75716;SDS011;64333;50.138;14.332;2023-04-04T00:12:13;5.30;;;3.10;;
75716;SDS011;64333;50.138;14.332;2023-04-04T00:14:38;5.77;;;3.23;;
75716;SDS011;64333;50.138;14.332;2023-04-04T00:17:03;3.93;;;3.17;;
75716;SDS011;64333;50.138;14.332;2023-04-04T00:19:28;6.77;;;3.50;;
75716;SDS011;64333;50.138;14.332;2023-04-04T00:21:53;3.87;;;3.30;;
75716;SDS011;64333;50.138;14.332;2023-04-04T00:24:19;6.10;;;3.37;;
75716;SDS011;64333;50.138;14.332;2023-04-04T00:26:44;6.75;;;3.63;;
75716;SDS011;64333;50.138;14.332;2023-04-04T00:29:10;4.88;;;3.13;;
75716;SDS011;64333;50.138;14.332;2023-04-04T00:31:35;4.97;;;2.97;;
75716;SDS011;64333;50.138;14.332;2023-04-04T00:34:00;6.20;;;3.17;;
75716;SDS011;64333;50.138;14.332;2023-04-04T00:36:25;5.07;;;3.33;;
75716;SDS011;64333;50.138;14.332;2023-04-04T00:38:51;4.53;;;3.07;;
75716;SDS011;64333;50.138;14.332;2023-04-04T00:41:16;5.33;;;2.50;;
75716;SDS011;64333;50.138;14.332;2023-04-04T00:43:42;5.70;;;2.93;;
75716;SDS011;64333;50.138;14.332;2023-04-04T00:46:08;4.35;;;2.65;;
75716;SDS011;64333;50.138;14.332;2023-04-04T00:48:35;2.90;;;2.42;;
75716;SDS011;64333;50.138;14.332;2023-04-04T00:51:00;3.90;;;2.95;;
75716;SDS011;64333;50.138;14.332;2023-04-04T00:53:26;3.72;;;2.45;;
75716;SDS011;64333;50.138;14.332;2023-04-04T00:55:51;5.22;;;2.75;;
75716;SDS011;64333;50.138;14.332;2023-04-04T00:58:17;5.70;;;2.65;;
75716;SDS011;64333;50.138;14.332;2023-04-04T01:00:43;7.35;;;3.03;;
75716;SDS011;64333;50.138;14.332;2023-04-04T01:03:08;5.72;;;2.90;;
75716;SDS011;64333;50.138;14.332;2023-04-04T01:05:36;4.32;;;2.55;;
75716;SDS011;64333;50.138;14.332;2023-04-04T01:08:01;4.53;;;2.33;;
75716;SDS011;64333;50.138;14.332;2023-04-04T01:10:29;5.07;;;2.92;;
75716;SDS011;64333;50.138;14.332;2023-04-04T01:12:54;4.43;;;2.78;;
75716;SDS011;64333;50.138;14.332;2023-04-04T01:15:19;4.63;;;2.60;;
75716;SDS011;64333;50.138;14.332;2023-04-04T01:17:45;4.13;;;2.93;;
75716;SDS011;64333;50.138;14.332;2023-04-04T01:20:11;4.72;;;3.00;;
75716;SDS011;64333;50.138;14.332;2023-04-04T01:22:38;4.40;;;3.10;;
75716;SDS011;64333;50.138;14.332;2023-04-04T01:25:04;5.18;;;3.30;;
75716;SDS011;64333;50.138;14.332;2023-04-04T01:27:29;4.80;;;3.17;;
75716;SDS011;64333;50.138;14.332;2023-04-04T01:29:55;4.13;;;3.05;;
75716;SDS011;64333;50.138;14.332;2023-04-04T01:37:32;6.13;;;3.40;;
75716;SDS011;64333;50.138;14.332;2023-04-04T01:40:02;3.80;;;2.90;;
75716;SDS011;64333;50.138;14.332;2023-04-04T01:42:29;5.95;;;2.35;;
75716;SDS011;64333;50.138;14.332;2023-04-04T01:44:55;4.47;;;3.22;;
75716;SDS011;64333;50.138;14.332;2023-04-04T01:47:21;5.72;;;3.05;;
75716;SDS011;64333;50.138;14.332;2023-04-04T01:49:46;5.85;;;2.75;;
75716;SDS011;64333;50.138;14.332;2023-04-04T01:52:11;4.85;;;2.83;;
75716;SDS011;64333;50.138;14.332;2023-04-04T01:54:37;5.67;;;3.50;;
75716;SDS011;64333;50.138;14.332;2023-04-04T01:57:02;7.03;;;3.03;;
75716;SDS011;64333;50.138;14.332;2023-04-04T01:59:27;5.43;;;3.00;;
75716;SDS011;64333;50.138;14.332;2023-04-04T02:01:52;5.47;;;3.13;;
75716;SDS011;64333;50.138;14.332;2023-04-04T02:04:17;4.97;;;2.43;;
75716;SDS011;64333;50.138;14.332;2023-04-04T02:06:43;8.23;;;3.07;;
75716;SDS011;64333;50.138;14.332;2023-04-04T02:09:08;7.13;;;3.70;;
75716;SDS011;64333;50.138;14.332;2023-04-04T02:11:33;4.00;;;3.27;;
75716;SDS011;64333;50.138;14.332;2023-04-04T02:13:58;4.80;;;3.70;;
75716;SDS011;64333;50.138;14.332;2023-04-04T02:16:24;4.90;;;3.10;;
75716;SDS011;64333;50.138;14.332;2023-04-04T02:18:49;6.67;;;3.27;;
75716;SDS011;64333;50.138;14.332;2023-04-04T02:21:14;5.93;;;3.50;;
75716;SDS011;64333;50.138;14.332;2023-04-04T02:23:39;5.60;;;3.42;;
75716;SDS011;64333;50.138;14.332;2023-04-04T02:26:05;6.78;;;3.80;;
75716;SDS011;64333;50.138;14.332;2023-04-04T02:28:30;4.90;;;2.88;;
75716;SDS011;64333;50.138;14.332;2023-04-04T02:30:59;5.35;;;3.30;;
75716;SDS011;64333;50.138;14.332;2023-04-04T02:33:26;4.03;;;3.03;;
75716;SDS011;64333;50.138;14.332;2023-04-04T02:35:51;6.75;;;2.92;;
75716;SDS011;64333;50.138;14.332;2023-04-04T02:38:16;5.85;;;3.20;;
75716;SDS011;64333;50.138;14.332;2023-04-04T02:40:43;4.83;;;3.47;;
75716;SDS011;64333;50.138;14.332;2023-04-04T02:43:09;3.67;;;3.00;;
75716;SDS011;64333;50.138;14.332;2023-04-04T02:45:34;4.33;;;2.57;;
75716;SDS011;64333;50.138;14.332;2023-04-04T02:47:59;5.17;;;3.40;;
75716;SDS011;64333;50.138;14.332;2023-04-04T02:50:25;6.63;;;3.47;;
75716;SDS011;64333;50.138;14.332;2023-04-04T02:52:51;4.85;;;2.97;;
75716;SDS011;64333;50.138;14.332;2023-04-04T02:55:18;3.88;;;2.85;;
75716;SDS011;64333;50.138;14.332;2023-04-04T02:57:49;7.03;;;3.33;;
75716;SDS011;64333;50.138;14.332;2023-04-04T03:00:14;4.10;;;3.00;;
75716;SDS011;64333;50.138;14.332;2023-04-04T03:02:39;7.78;;;3.80;;
75716;SDS011;64333;50.138;14.332;2023-04-04T03:05:05;5.13;;;3.50;;
75716;SDS011;64333;50.138;14.332;2023-04-04T03:07:30;3.78;;;3.00;;
75716;SDS011;64333;50.138;14.332;2023-04-04T03:09:56;5.80;;;3.45;;
75716;SDS011;64333;50.138;14.332;2023-04-04T03:12:22;4.45;;;3.08;;
75716;SDS011;64333;50.138;14.332;2023-04-04T03:14:47;6.33;;;3.40;;
75716;SDS011;64333;50.138;14.332;2023-04-04T03:17:13;5.88;;;3.08;;
75716;SDS011;64333;50.138;14.332;2023-04-04T03:19:39;4.72;;;3.30;;
75716;SDS011;64333;50.138;14.332;2023-04-04T03:22:05;8.70;;;4.07;;
75716;SDS011;64333;50.138;14.332;2023-04-04T03:24:30;3.33;;;2.40;;
75716;SDS011;64333;50.138;14.332;2023-04-04T03:26:56;4.55;;;2.92;;
75716;SDS011;64333;50.138;14.332;2023-04-04T03:29:23;5.72;;;3.53;;
75716;SDS011;64333;50.138;14.332;2023-04-04T03:31:48;5.10;;;3.03;;
75716;SDS011;64333;50.138;14.332;2023-04-04T03:34:13;6.43;;;3.97;;
75716;SDS011;64333;50.138;14.332;2023-04-04T03:36:39;4.43;;;3.30;;
75716;SDS011;64333;50.138;14.332;2023-04-04T03:39:04;4.63;;;3.07;;
75716;SDS011;64333;50.138;14.332;2023-04-04T03:41:30;5.47;;;3.05;;
75716;SDS011;64333;50.138;14.332;2023-04-04T03:43:55;4.63;;;3.43;;
75716;SDS011;64333;50.138;14.332;2023-04-04T03:46:21;5.37;;;3.63;;
75716;SDS011;64333;50.138;14.332;2023-04-04T03:48:46;6.93;;;3.57;;
75716;SDS011;64333;50.138;14.332;2023-04-04T03:51:11;6.37;;;3.73;;
75716;SDS011;64333;50.138;14.332;2023-04-04T03:53:36;9.43;;;3.97;;
75716;SDS011;64333;50.138;14.332;2023-04-04T03:56:02;6.37;;;3.40;;
75716;SDS011;64333;50.138;14.332;2023-04-04T03:58:27;5.55;;;4.15;;
75716;SDS011;64333;50.138;14.332;2023-04-04T04:00:53;9.98;;;4.30;;
75716;SDS011;64333;50.138;14.332;2023-04-04T04:03:18;6.38;;;3.42;;
75716;SDS011;64333;50.138;14.332;2023-04-04T04:05:45;6.43;;;4.05;;
75716;SDS011;64333;50.138;14.332;2023-04-04T04:08:10;6.45;;;4.10;;
75716;SDS011;64333;50.138;14.332;2023-04-04T04:10:35;6.63;;;3.80;;
75716;SDS011;64333;50.138;14.332;2023-04-04T04:13:01;6.38;;;4.45;;
75716;SDS011;64333;50.138;14.332;2023-04-04T04:15:26;7.50;;;4.22;;
75716;SDS011;64333;50.138;14.332;2023-04-04T04:17:52;8.90;;;5.63;;
75716;SDS011;64333;50.138;14.332;2023-04-04T04:20:17;11.37;;;5.37;;
75716;SDS011;64333;50.138;14.332;2023-04-04T04:22:45;10.35;;;4.97;;
75716;SDS011;64333;50.138;14.332;2023-04-04T04:25:11;10.20;;;4.80;;
75716;SDS011;64333;50.138;14.332;2023-04-04T04:27:36;9.05;;;4.88;;
75716;SDS011;64333;50.138;14.332;2023-04-04T04:30:01;9.93;;;4.70;;
75716;SDS011;64333;50.138;14.332;2023-04-04T04:32:27;7.35;;;4.25;;
75716;SDS011;64333;50.138;14.332;2023-04-04T04:34:52;6.87;;;3.97;;
75716;SDS011;64333;50.138;14.332;2023-04-04T04:37:18;5.20;;;3.43;;
75716;SDS011;64333;50.138;14.332;2023-04-04T04:39:43;7.77;;;3.43;;
75716;SDS011;64333;50.138;14.332;2023-04-04T04:42:08;5.23;;;3.00;;
75716;SDS011;64333;50.138;14.332;2023-04-04T04:44:33;4.50;;;3.83;;
75716;SDS011;64333;50.138;14.332;2023-04-04T04:46:58;7.30;;;3.57;;
75716;SDS011;64333;50.138;14.332;2023-04-04T04:49:24;6.10;;;4.18;;
75716;SDS011;64333;50.138;14.332;2023-04-04T04:51:50;6.63;;;3.17;;
75716;SDS011;64333;50.138;14.332;2023-04-04T04:54:15;6.97;;;3.87;;
75716;SDS011;64333;50.138;14.332;2023-04-04T04:56:40;5.83;;;3.43;;
75716;SDS011;64333;50.138;14.332;2023-04-04T04:59:06;8.43;;;4.33;;
75716;SDS011;64333;50.138;14.332;2023-04-04T05:01:32;8.70;;;4.25;;
75716;SDS011;64333;50.138;14.332;2023-04-04T05:03:58;6.82;;;3.80;;
75716;SDS011;64333;50.138;14.332;2023-04-04T05:06:23;5.80;;;3.90;;
75716;SDS011;64333;50.138;14.332;2023-04-04T05:08:48;6.05;;;4.15;;
75716;SDS011;64333;50.138;14.332;2023-04-04T05:11:14;4.80;;;3.43;;
75716;SDS011;64333;50.138;14.332;2023-04-04T05:13:39;6.75;;;3.13;;
75716;SDS011;64333;50.138;14.332;2023-04-04T05:16:05;5.88;;;3.38;;
75716;SDS011;64333;50.138;14.332;2023-04-04T05:18:30;7.10;;;3.70;;
75716;SDS011;64333;50.138;14.332;2023-04-04T05:20:55;5.93;;;3.47;;
75716;SDS011;64333;50.138;14.332;2023-04-04T05:23:21;5.25;;;3.10;;
75716;SDS011;64333;50.138;14.332;2023-04-04T05:25:49;4.47;;;2.92;;
75716;SDS011;64333;50.138;14.332;2023-04-04T05:28:15;5.13;;;2.80;;
75716;SDS011;64333;50.138;14.332;2023-04-04T05:30:41;8.32;;;3.83;;
75716;SDS011;64333;50.138;14.332;2023-04-04T05:33:06;7.27;;;2.90;;
75716;SDS011;64333;50.138;14.332;2023-04-04T05:35:31;5.63;;;3.47;;
75716;SDS011;64333;50.138;14.332;2023-04-04T05:37:56;5.13;;;3.20;;
75716;SDS011;64333;50.138;14.332;2023-04-04T05:40:22;7.30;;;3.90;;
75716;SDS011;64333;50.138;14.332;2023-04-04T05:42:57;4.80;;;3.20;;
75716;SDS011;64333;50.138;14.332;2023-04-04T05:45:22;6.78;;;3.83;;
75716;SDS011;64333;50.138;14.332;2023-04-04T05:47:47;5.80;;;3.28;;
75716;SDS011;64333;50.138;14.332;2023-04-04T05:50:13;4.07;;;2.72;;
75716;SDS011;64333;50.138;14.332;2023-04-04T05:52:38;6.05;;;2.78;;
75716;SDS011;64333;50.138;14.332;2023-04-04T05:55:03;6.17;;;3.30;;
75716;SDS011;64333;50.138;14.332;2023-04-04T05:57:29;5.95;;;3.03;;
75716;SDS011;64333;50.138;14.332;2023-04-04T05:59:54;4.00;;;2.67;;
75716;SDS011;64333;50.138;14.332;2023-04-04T06:02:19;4.32;;;2.67;;
75716;SDS011;64333;50.138;14.332;2023-04-04T06:04:45;4.10;;;3.03;;
75716;SDS011;64333;50.138;14.332;2023-04-04T06:07:10;3.33;;;2.20;;
75716;SDS011;64333;50.138;14.332;2023-04-04T06:09:35;5.13;;;3.23;;
75716;SDS011;64333;50.138;14.332;2023-04-04T06:12:01;4.87;;;2.73;;
75716;SDS011;64333;50.138;14.332;2023-04-04T06:14:28;4.47;;;2.97;;
75716;SDS011;64333;50.138;14.332;2023-04-04T06:16:53;5.90;;;2.40;;
75716;SDS011;64333;50.138;14.332;2023-04-04T06:19:19;5.47;;;3.00;;
75716;SDS011;64333;50.138;14.332;2023-04-04T06:21:44;5.47;;;3.00;;
75716;SDS011;64333;50.138;14.332;2023-04-04T06:24:10;5.20;;;2.38;;
75716;SDS011;64333;50.138;14.332;2023-04-04T06:26:35;4.43;;;2.13;;
75716;SDS011;64333;50.138;14.332;2023-04-04T06:29:00;6.37;;;2.27;;
75716;SDS011;64333;50.138;14.332;2023-04-04T06:31:25;4.27;;;2.40;;
75716;SDS011;64333;50.138;14.332;2023-04-04T06:33:51;2.35;;;1.70;;
75716;SDS011;64333;50.138;14.332;2023-04-04T06:36:16;1.73;;;1.20;;
75716;SDS011;64333;50.138;14.332;2023-04-04T06:38:41;3.40;;;1.70;;
75716;SDS011;64333;50.138;14.332;2023-04-04T06:41:06;4.17;;;2.00;;
75716;SDS011;64333;50.138;14.332;2023-04-04T06:43:32;2.90;;;1.63;;
75716;SDS011;64333;50.138;14.332;2023-04-04T06:45:58;2.15;;;1.42;;
75716;SDS011;64333;50.138;14.332;2023-04-04T06:48:23;3.25;;;1.42;;
75716;SDS011;64333;50.138;14.332;2023-04-04T06:50:48;2.27;;;1.50;;
75716;SDS011;64333;50.138;14.332;2023-04-04T06:53:13;2.07;;;1.60;;
75716;SDS011;64333;50.138;14.332;2023-04-04T06:55:39;1.83;;;1.50;;
75716;SDS011;64333;50.138;14.332;2023-04-04T06:58:04;3.00;;;1.67;;
75716;SDS011;64333;50.138;14.332;2023-04-04T07:00:29;2.60;;;1.70;;
75716;SDS011;64333;50.138;14.332;2023-04-04T07:02:55;2.53;;;1.50;;
75716;SDS011;64333;50.138;14.332;2023-04-04T07:05:21;2.97;;;1.40;;
75716;SDS011;64333;50.138;14.332;2023-04-04T07:07:46;3.03;;;1.50;;
75716;SDS011;64333;50.138;14.332;2023-04-04T07:10:11;1.87;;;1.43;;
75716;SDS011;64333;50.138;14.332;2023-04-04T07:12:36;3.37;;;1.93;;
75716;SDS011;64333;50.138;14.332;2023-04-04T07:15:02;2.43;;;1.60;;
75716;SDS011;64333;50.138;14.332;2023-04-04T07:17:28;3.72;;;1.70;;
75716;SDS011;64333;50.138;14.332;2023-04-04T07:19:53;4.28;;;1.73;;
75716;SDS011;64333;50.138;14.332;2023-04-04T07:22:18;3.43;;;1.73;;
75716;SDS011;64333;50.138;14.332;2023-04-04T07:24:44;3.77;;;1.50;;
75716;SDS011;64333;50.138;14.332;2023-04-04T07:27:09;4.80;;;1.90;;
75716;SDS011;64333;50.138;14.332;2023-04-04T07:29:35;3.00;;;1.80;;
75716;SDS011;64333;50.138;14.332;2023-04-04T07:32:01;4.20;;;2.55;;
75716;SDS011;64333;50.138;14.332;2023-04-04T07:34:26;3.15;;;1.73;;
75716;SDS011;64333;50.138;14.332;2023-04-04T07:36:52;3.05;;;2.00;;
75716;SDS011;64333;50.138;14.332;2023-04-04T07:39:17;3.72;;;2.30;;
75716;SDS011;64333;50.138;14.332;2023-04-04T07:41:43;4.50;;;1.95;;
75716;SDS011;64333;50.138;14.332;2023-04-04T07:44:08;3.27;;;2.37;;
75716;SDS011;64333;50.138;14.332;2023-04-04T07:46:33;2.85;;;2.20;;
75716;SDS011;64333;50.138;14.332;2023-04-04T07:48:59;3.93;;;2.40;;
75716;SDS011;64333;50.138;14.332;2023-04-04T07:51:25;3.47;;;2.17;;
75716;SDS011;64333;50.138;14.332;2023-04-04T07:53:55;4.95;;;2.92;;
75716;SDS011;64333;50.138;14.332;2023-04-04T07:56:20;3.90;;;1.80;;
75716;SDS011;64333;50.138;14.332;2023-04-04T07:58:46;2.53;;;1.75;;
75716;SDS011;64333;50.138;14.332;2023-04-04T08:01:11;3.05;;;1.90;;
75716;SDS011;64333;50.138;14.332;2023-04-04T08:03:36;2.78;;;1.70;;
75716;SDS011;64333;50.138;14.332;2023-04-04T08:06:01;2.50;;;1.70;;
75716;SDS011;64333;50.138;14.332;2023-04-04T08:08:28;2.97;;;1.83;;
75716;SDS011;64333;50.138;14.332;2023-04-04T08:10:53;3.85;;;2.00;;
75716;SDS011;64333;50.138;14.332;2023-04-04T08:13:19;5.10;;;1.95;;
75716;SDS011;64333;50.138;14.332;2023-04-04T08:15:44;3.88;;;1.85;;
75716;SDS011;64333;50.138;14.332;2023-04-04T08:18:09;2.93;;;2.03;;
75716;SDS011;64333;50.138;14.332;2023-04-04T08:20:34;5.40;;;2.40;;
75716;SDS011;64333;50.138;14.332;2023-04-04T08:23:00;3.42;;;2.25;;
75716;SDS011;64333;50.138;14.332;2023-04-04T08:25:25;3.20;;;2.67;;
75716;SDS011;64333;50.138;14.332;2023-04-04T08:27:51;3.20;;;2.28;;
75716;SDS011;64333;50.138;14.332;2023-04-04T08:30:16;2.80;;;2.10;;
75716;SDS011;64333;50.138;14.332;2023-04-04T08:32:41;5.55;;;2.50;;
75716;SDS011;64333;50.138;14.332;2023-04-04T08:35:09;7.82;;;3.80;;
75716;SDS011;64333;50.138;14.332;2023-04-04T08:37:35;4.55;;;2.08;;
75716;SDS011;64333;50.138;14.332;2023-04-04T08:40:01;4.05;;;2.50;;
75716;SDS011;64333;50.138;14.332;2023-04-04T08:42:27;6.07;;;2.45;;
75716;SDS011;64333;50.138;14.332;2023-04-04T08:44:54;5.63;;;2.60;;
75716;SDS011;64333;50.138;14.332;2023-04-04T08:47:21;2.78;;;2.10;;
75716;SDS011;64333;50.138;14.332;2023-04-04T08:49:48;3.92;;;2.80;;
75716;SDS011;64333;50.138;14.332;2023-04-04T08:52:16;4.43;;;2.28;;
75716;SDS011;64333;50.138;14.332;2023-04-04T08:54:43;4.85;;;2.45;;
75716;SDS011;64333;50.138;14.332;2023-04-04T08:57:08;4.97;;;2.90;;
75716;SDS011;64333;50.138;14.332;2023-04-04T08:59:34;4.50;;;2.90;;
75716;SDS011;64333;50.138;14.332;2023-04-04T09:02:01;5.10;;;2.55;;
75716;SDS011;64333;50.138;14.332;2023-04-04T09:04:28;4.47;;;2.42;;
75716;SDS011;64333;50.138;14.332;2023-04-04T09:06:53;6.10;;;2.13;;
75716;SDS011;64333;50.138;14.332;2023-04-04T09:09:19;3.20;;;2.50;;
75716;SDS011;64333;50.138;14.332;2023-04-04T09:11:45;5.18;;;3.08;;
75716;SDS011;64333;50.138;14.332;2023-04-04T09:14:12;5.22;;;2.28;;
75716;SDS011;64333;50.138;14.332;2023-04-04T09:16:37;3.17;;;2.25;;
75716;SDS011;64333;50.138;14.332;2023-04-04T09:19:03;2.35;;;2.00;;
75716;SDS011;64333;50.138;14.332;2023-04-04T09:21:31;3.33;;;2.47;;
75716;SDS011;64333;50.138;14.332;2023-04-04T09:23:57;3.70;;;2.28;;
75716;SDS011;64333;50.138;14.332;2023-04-04T09:26:23;4.40;;;2.75;;
75716;SDS011;64333;50.138;14.332;2023-04-04T09:28:51;2.85;;;2.45;;
75716;SDS011;64333;50.138;14.332;2023-04-04T09:31:16;5.93;;;2.90;;
75716;SDS011;64333;50.138;14.332;2023-04-04T09:33:41;3.23;;;2.57;;
75716;SDS011;64333;50.138;14.332;2023-04-04T09:36:07;4.07;;;2.50;;
75716;SDS011;64333;50.138;14.332;2023-04-04T09:38:35;4.05;;;2.45;;
75716;SDS011;64333;50.138;14.332;2023-04-04T09:41:00;6.85;;;3.13;;
75716;SDS011;64333;50.138;14.332;2023-04-04T09:43:26;2.70;;;2.38;;
75716;SDS011;64333;50.138;14.332;2023-04-04T09:45:54;3.28;;;2.50;;
75716;SDS011;64333;50.138;14.332;2023-04-04T09:48:24;4.35;;;2.55;;
75716;SDS011;64333;50.138;14.332;2023-04-04T09:50:49;3.22;;;2.35;;
75716;SDS011;64333;50.138;14.332;2023-04-04T09:53:15;4.95;;;2.65;;
75716;SDS011;64333;50.138;14.332;2023-04-04T09:55:40;2.90;;;2.35;;
75716;SDS011;64333;50.138;14.332;2023-04-04T09:58:13;4.80;;;3.53;;
75716;SDS011;64333;50.138;14.332;2023-04-04T10:00:40;3.53;;;2.65;;
75716;SDS011;64333;50.138;14.332;2023-04-04T10:03:07;3.28;;;2.10;;
75716;SDS011;64333;50.138;14.332;2023-04-04T10:05:32;3.05;;;2.63;;
75716;SDS011;64333;50.138;14.332;2023-04-04T10:07:57;4.35;;;2.40;;
75716;SDS011;64333;50.138;14.332;2023-04-04T10:10:23;4.57;;;2.05;;
75716;SDS011;64333;50.138;14.332;2023-04-04T10:12:51;2.97;;;2.40;;
75716;SDS011;64333;50.138;14.332;2023-04-04T10:15:16;4.32;;;2.50;;
75716;SDS011;64333;50.138;14.332;2023-04-04T10:17:42;2.63;;;2.20;;
75716;SDS011;64333;50.138;14.332;2023-04-04T10:20:08;2.95;;;2.55;;
75716;SDS011;64333;50.138;14.332;2023-04-04T10:22:37;3.25;;;2.50;;
75716;SDS011;64333;50.138;14.332;2023-04-04T10:25:03;2.90;;;2.50;;
75716;SDS011;64333;50.138;14.332;2023-04-04T10:27:29;3.25;;;2.35;;
75716;SDS011;64333;50.138;14.332;2023-04-04T10:29:55;3.83;;;2.58;;
75716;SDS011;64333;50.138;14.332;2023-04-04T10:32:32;3.00;;;2.42;;
75716;SDS011;64333;50.138;14.332;2023-04-04T10:35:01;3.45;;;2.22;;
75716;SDS011;64333;50.138;14.332;2023-04-04T10:37:30;2.92;;;2.17;;
75716;SDS011;64333;50.138;14.332;2023-04-04T10:40:08;4.28;;;2.33;;
75716;SDS011;64333;50.138;14.332;2023-04-04T10:42:38;3.33;;;2.55;;
75716;SDS011;64333;50.138;14.332;2023-04-04T10:45:05;3.75;;;2.92;;
75716;SDS011;64333;50.138;14.332;2023-04-04T10:47:31;3.90;;;2.63;;
75716;SDS011;64333;50.138;14.332;2023-04-04T10:49:57;3.50;;;2.72;;
75716;SDS011;64333;50.138;14.332;2023-04-04T10:52:23;4.22;;;2.42;;
75716;SDS011;64333;50.138;14.332;2023-04-04T10:54:49;3.95;;;2.33;;
75716;SDS011;64333;50.138;14.332;2023-04-04T10:57:15;3.35;;;2.55;;
75716;SDS011;64333;50.138;14.332;2023-04-04T11:02:43;3.60;;;2.65;;
75716;SDS011;64333;50.138;14.332;2023-04-04T11:05:17;2.67;;;2.40;;
75716;SDS011;64333;50.138;14.332;2023-04-04T11:07:44;3.88;;;2.45;;
75716;SDS011;64333;50.138;14.332;2023-04-04T11:10:13;3.97;;;2.28;;
75716;SDS011;64333;50.138;14.332;2023-04-04T11:12:43;3.05;;;1.92;;
75716;SDS011;64333;50.138;14.332;2023-04-04T11:15:10;4.32;;;2.90;;
75716;SDS011;64333;50.138;14.332;2023-04-04T11:18:09;2.47;;;2.22;;
75716;SDS011;64333;50.138;14.332;2023-04-04T11:20:29;2.60;;;2.03;;
75716;SDS011;64333;50.138;14.332;2023-04-04T11:23:04;2.85;;;2.05;;
75716;SDS011;64333;50.138;14.332;2023-04-04T11:27:56;2.80;;;1.92;;
75716;SDS011;64333;50.138;14.332;2023-04-04T11:30:22;3.08;;;2.30;;
75716;SDS011;64333;50.138;14.332;2023-04-04T11:32:48;3.15;;;1.92;;
75716;SDS011;64333;50.138;14.332;2023-04-04T11:35:14;2.50;;;1.90;;
75716;SDS011;64333;50.138;14.332;2023-04-04T11:37:42;2.22;;;1.75;;
75716;SDS011;64333;50.138;14.332;2023-04-04T11:40:08;2.30;;;1.50;;
75716;SDS011;64333;50.138;14.332;2023-04-04T11:42:36;2.05;;;1.50;;
75716;SDS011;64333;50.138;14.332;2023-04-04T11:45:03;3.00;;;1.70;;
75716;SDS011;64333;50.138;14.332;2023-04-04T11:47:30;2.10;;;1.90;;
75716;SDS011;64333;50.138;14.332;2023-04-04T11:49:56;2.17;;;1.50;;
75716;SDS011;64333;50.138;14.332;2023-04-04T11:52:21;2.35;;;1.45;;
75716;SDS011;64333;50.138;14.332;2023-04-04T11:54:50;3.90;;;1.48;;
75716;SDS011;64333;50.138;14.332;2023-04-04T11:57:16;2.72;;;1.85;;
75716;SDS011;64333;50.138;14.332;2023-04-04T11:59:42;2.92;;;1.45;;
75716;SDS011;64333;50.138;14.332;2023-04-04T12:02:10;2.30;;;1.58;;
75716;SDS011;64333;50.138;14.332;2023-04-04T12:04:36;4.00;;;1.75;;
75716;SDS011;64333;50.138;14.332;2023-04-04T12:07:04;2.60;;;1.50;;
75716;SDS011;64333;50.138;14.332;2023-04-04T12:09:30;2.05;;;1.73;;
75716;SDS011;64333;50.138;14.332;2023-04-04T12:11:56;2.50;;;1.60;;
75716;SDS011;64333;50.138;14.332;2023-04-04T12:14:22;3.00;;;1.40;;
75716;SDS011;64333;50.138;14.332;2023-04-04T12:16:48;4.85;;;1.85;;
75716;SDS011;64333;50.138;14.332;2023-04-04T12:19:15;4.28;;;1.52;;
75716;SDS011;64333;50.138;14.332;2023-04-04T12:21:40;2.13;;;1.10;;
75716;SDS011;64333;50.138;14.332;2023-04-04T12:24:09;3.58;;;1.58;;
75716;SDS011;64333;50.138;14.332;2023-04-04T12:26:41;1.60;;;1.40;;
75716;SDS011;64333;50.138;14.332;2023-04-04T12:29:10;2.10;;;1.60;;
75716;SDS011;64333;50.138;14.332;2023-04-04T12:31:36;1.92;;;1.23;;
75716;SDS011;64333;50.138;14.332;2023-04-04T12:34:02;2.20;;;1.52;;
75716;SDS011;64333;50.138;14.332;2023-04-04T12:36:35;2.03;;;1.42;;
75716;SDS011;64333;50.138;14.332;2023-04-04T12:39:03;1.83;;;1.20;;
75716;SDS011;64333;50.138;14.332;2023-04-04T12:41:29;4.93;;;1.60;;
75716;SDS011;64333;50.138;14.332;2023-04-04T12:44:02;1.58;;;1.35;;
75716;SDS011;64333;50.138;14.332;2023-04-04T12:46:34;1.63;;;1.30;;
75716;SDS011;64333;50.138;14.332;2023-04-04T12:48:59;1.98;;;1.40;;
75716;SDS011;64333;50.138;14.332;2023-04-04T12:51:29;2.03;;;1.40;;
75716;SDS011;64333;50.138;14.332;2023-04-04T12:53:54;1.77;;;1.33;;
75716;SDS011;64333;50.138;14.332;2023-04-04T12:56:23;1.33;;;1.10;;
75716;SDS011;64333;50.138;14.332;2023-04-04T12:58:49;2.72;;;1.30;;
75716;SDS011;64333;50.138;14.332;2023-04-04T13:01:15;2.05;;;1.30;;
75716;SDS011;64333;50.138;14.332;2023-04-04T13:03:43;2.22;;;1.77;;
75716;SDS011;64333;50.138;14.332;2023-04-04T13:06:12;2.37;;;1.80;;
75716;SDS011;64333;50.138;14.332;2023-04-04T13:08:47;2.67;;;1.60;;
75716;SDS011;64333;50.138;14.332;2023-04-04T13:11:12;4.03;;;2.42;;
75716;SDS011;64333;50.138;14.332;2023-04-04T13:13:39;2.40;;;1.43;;
75716;SDS011;64333;50.138;14.332;2023-04-04T13:18:33;2.45;;;1.50;;
75716;SDS011;64333;50.138;14.332;2023-04-04T13:21:01;2.42;;;1.50;;
75716;SDS011;64333;50.138;14.332;2023-04-04T13:23:26;2.28;;;1.33;;
75716;SDS011;64333;50.138;14.332;2023-04-04T13:25:51;1.90;;;1.30;;
75716;SDS011;64333;50.138;14.332;2023-04-04T13:28:17;3.90;;;1.87;;
75716;SDS011;64333;50.138;14.332;2023-04-04T13:30:42;2.30;;;1.50;;
75716;SDS011;64333;50.138;14.332;2023-04-04T13:33:12;2.10;;;1.40;;
75716;SDS011;64333;50.138;14.332;2023-04-04T13:35:38;2.67;;;1.73;;
75716;SDS011;64333;50.138;14.332;2023-04-04T13:38:03;3.13;;;2.00;;
75716;SDS011;64333;50.138;14.332;2023-04-04T13:40:28;2.83;;;2.10;;
75716;SDS011;64333;50.138;14.332;2023-04-04T13:42:53;3.75;;;1.85;;
75716;SDS011;64333;50.138;14.332;2023-04-04T13:45:19;2.83;;;1.97;;
75716;SDS011;64333;50.138;14.332;2023-04-04T13:47:44;2.00;;;1.63;;
75716;SDS011;64333;50.138;14.332;2023-04-04T13:50:09;2.40;;;1.90;;
75716;SDS011;64333;50.138;14.332;2023-04-04T13:52:35;3.47;;;1.38;;
75716;SDS011;64333;50.138;14.332;2023-04-04T13:55:00;3.83;;;2.10;;
75716;SDS011;64333;50.138;14.332;2023-04-04T13:57:27;2.28;;;1.70;;
75716;SDS011;64333;50.138;14.332;2023-04-04T13:59:52;2.40;;;1.83;;
75716;SDS011;64333;50.138;14.332;2023-04-04T14:02:20;2.25;;;1.60;;
75716;SDS011;64333;50.138;14.332;2023-04-04T14:04:46;2.42;;;1.73;;
75716;SDS011;64333;50.138;14.332;2023-04-04T14:07:11;7.33;;;1.70;;
75716;SDS011;64333;50.138;14.332;2023-04-04T14:09:36;2.00;;;1.60;;
75716;SDS011;64333;50.138;14.332;2023-04-04T14:12:01;3.28;;;2.00;;
75716;SDS011;64333;50.138;14.332;2023-04-04T14:14:26;2.80;;;2.20;;
75716;SDS011;64333;50.138;14.332;2023-04-04T14:16:52;2.33;;;1.57;;
75716;SDS011;64333;50.138;14.332;2023-04-04T14:19:17;2.47;;;1.67;;
75716;SDS011;64333;50.138;14.332;2023-04-04T14:21:42;3.50;;;1.67;;
75716;SDS011;64333;50.138;14.332;2023-04-04T14:24:08;2.38;;;1.80;;
75716;SDS011;64333;50.138;14.332;2023-04-04T14:26:33;2.83;;;1.60;;
75716;SDS011;64333;50.138;14.332;2023-04-04T14:28:58;3.65;;;2.33;;
75716;SDS011;64333;50.138;14.332;2023-04-04T14:31:23;2.87;;;1.77;;
75716;SDS011;64333;50.138;14.332;2023-04-04T14:33:49;3.08;;;2.15;;
75716;SDS011;64333;50.138;14.332;2023-04-04T14:36:14;2.83;;;1.50;;
75716;SDS011;64333;50.138;14.332;2023-04-04T14:38:40;2.45;;;2.03;;